»·PEaware :: N9875 KEGE-KGJT

N9875 :: KEGE-KGJT

FLIGHT INFORMATION

Flight Status: Arrived
Operator: Privately registered:
United States
More flights under this callsign
Pilot: Brad M. (22842)
Aircraft: PILATUS PC-12 EAGLE
(PC12)
More flights by this aircraft type
Origin: KEGE Eagle Co Regl
United States
Destination: KGJT Grand Junction Regl
United States
More flights between these airports :: More routes between these airports
Route: BEVVR1 SPRKT
File this flight plan on PilotEdge
Remarks:
Altitude:
(Current/Filed)
18,000ft
Speed:
(Current/Filed)
250kts
Departed: 02-Aug-19 10:11 AM
Arrived: 02-Aug-19 10:41 AM
Distance/Time
Traveled:
81nm/0:29
Distance/Time
To Go:
Arrived

Flight Plot

Page will automatically refresh every two minutes.

Flight plan parsing failed; only flown route is shown


Map Options




Map Legend


Flown Route
Filed Route
Departure Airport
Arrival Airport
Navaid (VOR, NDB)
Fix

Horizontal Profiles

Position Reports

Time Latitude Longitude Heading Altitude Ground
Speed
02-Aug-19 09:48 39.641901 -106.905868 258 6548ft 0kts
02-Aug-19 09:49 39.641901 -106.905868 258 6548ft 0kts
02-Aug-19 09:49 39.641901 -106.905868 258 6548ft 0kts
02-Aug-19 09:51 39.641901 -106.905868 258 6548ft 0kts
02-Aug-19 09:52 39.641901 -106.905868 258 6548ft 0kts
02-Aug-19 09:52 39.641901 -106.905868 258 6548ft 0kts
02-Aug-19 09:54 39.641901 -106.905868 258 6548ft 0kts
02-Aug-19 09:55 39.641901 -106.905868 258 6548ft 0kts
02-Aug-19 09:55 39.641901 -106.905868 258 6548ft 0kts
02-Aug-19 09:56 39.641901 -106.905868 258 6548ft 0kts
02-Aug-19 09:58 39.641901 -106.905868 258 6548ft 0kts
02-Aug-19 09:58 39.641901 -106.905868 258 6548ft 0kts
02-Aug-19 09:59 39.641900 -106.905873 257 6548ft 0kts
02-Aug-19 10:01 39.641900 -106.905873 257 6548ft 0kts
02-Aug-19 10:01 39.641900 -106.905873 257 6548ft 0kts
02-Aug-19 10:02 39.641899 -106.905881 257 6548ft 0kts
02-Aug-19 10:03 39.641899 -106.905881 257 6548ft 0kts
02-Aug-19 10:04 39.641899 -106.905881 257 6548ft 0kts
02-Aug-19 10:05 39.641899 -106.905881 257 6548ft 0kts
02-Aug-19 10:06 39.642355 -106.904438 82 6548ft 12kts
02-Aug-19 10:07 39.643276 -106.900895 80 6548ft 0kts
02-Aug-19 10:08 39.643470 -106.900172 23 6548ft 0kts
02-Aug-19 10:09 39.643507 -106.900153 20 6548ft 0kts
02-Aug-19 10:10 39.642806 -106.915278 261 6596ft 128kts
02-Aug-19 10:11 39.618702 -106.951728 216 8018ft 143kts
02-Aug-19 10:12 39.582901 -106.985136 235 9402ft 184kts
02-Aug-19 10:13 39.582201 -107.056396 290 10938ft 214kts
02-Aug-19 10:14 39.624386 -107.107451 341 12704ft 211kts
02-Aug-19 10:15 39.678752 -107.121834 297 14372ft 211kts
02-Aug-19 10:16 39.663301 -107.193921 243 15952ft 220kts
02-Aug-19 10:17 39.634607 -107.263963 244 17449ft 219kts
02-Aug-19 10:18 39.605236 -107.337720 244 17975ft 249kts
02-Aug-19 10:19 39.572036 -107.421137 244 17972ft 266kts
02-Aug-19 10:20 39.537578 -107.507286 244 18164ft 262kts
02-Aug-19 10:21 39.503908 -107.590857 243 18402ft 266kts
02-Aug-19 10:22 39.469602 -107.675796 243 18402ft 270kts
02-Aug-19 10:23 39.434702 -107.762272 243 18211ft 276kts
02-Aug-19 10:24 39.398097 -107.852891 243 17211ft 286kts
02-Aug-19 10:25 39.361460 -107.943707 244 15850ft 271kts
02-Aug-19 10:26 39.330216 -108.020715 243 15140ft 218kts
02-Aug-19 10:27 39.302008 -108.092066 248 15034ft 227kts
02-Aug-19 10:28 39.278129 -108.168125 249 13440ft 232kts
02-Aug-19 10:29 39.254558 -108.242867 249 12816ft 232kts
02-Aug-19 10:30 39.228991 -108.324746 249 11322ft 252kts
02-Aug-19 10:31 39.203688 -108.406841 249 10222ft 243kts
02-Aug-19 10:32 39.185366 -108.466138 249 10012ft 155kts
02-Aug-19 10:33 39.196907 -108.532898 289 10000ft 204kts
02-Aug-19 10:34 39.213381 -108.596037 289 10005ft 181kts
02-Aug-19 10:35 39.229573 -108.657122 289 8144ft 180kts
02-Aug-19 10:36 39.219525 -108.700546 161 7026ft 162kts
02-Aug-19 10:37 39.186761 -108.640043 122 6830ft 210kts
02-Aug-19 10:38 39.156728 -108.584877 120 5669ft 152kts
02-Aug-19 10:39 39.137472 -108.548833 124 4920ft 110kts
02-Aug-19 10:40 39.129117 -108.536183 126 4803ft 12kts
02-Aug-19 10:41 39.126263 -108.530946 121 4803ft 20kts
02-Aug-19 10:42 39.124832 -108.531927 124 4803ft 0kts
02-Aug-19 10:43 39.124832 -108.531927 124 4803ft 0kts
02-Aug-19 10:44 39.124832 -108.531927 124 4803ft 0kts
02-Aug-19 10:45 39.124832 -108.531927 124 4803ft 0kts
02-Aug-19 10:46 39.124832 -108.531927 124 4803ft 0kts
02-Aug-19 10:47 39.124832 -108.531927 124 4803ft 0kts

Navigation Log

Ident Type
Flight plan parsing failed, navigation log unavailable